sensor_id;sensor_type;location;lat;lon;timestamp;temperature;humidity
15707;DHT22;7953;54.302;10.128;2022-08-21T00:00:53;15.40;99.90
15707;DHT22;7953;54.302;10.128;2022-08-21T00:03:20;15.40;99.90
15707;DHT22;7953;54.302;10.128;2022-08-21T00:05:49;15.40;99.90
15707;DHT22;7953;54.302;10.128;2022-08-21T00:08:18;15.40;99.90
15707;DHT22;7953;54.302;10.128;2022-08-21T00:10:46;15.30;99.90
15707;DHT22;7953;54.302;10.128;2022-08-21T00:13:14;15.20;99.90
15707;DHT22;7953;54.302;10.128;2022-08-21T00:15:42;15.20;99.90
15707;DHT22;7953;54.302;10.128;2022-08-21T00:18:11;15.20;99.90
15707;DHT22;7953;54.302;10.128;2022-08-21T00:20:39;15.20;99.90
15707;DHT22;7953;54.302;10.128;2022-08-21T00:23:07;15.20;99.90
15707;DHT22;7953;54.302;10.128;2022-08-21T00:25:34;15.20;99.90
15707;DHT22;7953;54.302;10.128;2022-08-21T00:28:01;15.20;99.90
15707;DHT22;7953;54.302;10.128;2022-08-21T00:30:29;15.10;99.90
15707;DHT22;7953;54.302;10.128;2022-08-21T00:32:57;15.10;99.90
15707;DHT22;7953;54.302;10.128;2022-08-21T00:35:28;15.10;99.90
15707;DHT22;7953;54.302;10.128;2022-08-21T00:37:55;15.10;99.90
15707;DHT22;7953;54.302;10.128;2022-08-21T00:40:28;15.10;99.90
15707;DHT22;7953;54.302;10.128;2022-08-21T00:42:55;15.10;99.90
15707;DHT22;7953;54.302;10.128;2022-08-21T00:45:23;15.20;99.90
15707;DHT22;7953;54.302;10.128;2022-08-21T00:47:51;15.20;99.90
15707;DHT22;7953;54.302;10.128;2022-08-21T00:50:21;15.20;99.90
15707;DHT22;7953;54.302;10.128;2022-08-21T00:52:50;15.20;99.90
15707;DHT22;7953;54.302;10.128;2022-08-21T00:55:18;15.10;99.90
15707;DHT22;7953;54.302;10.128;2022-08-21T00:57:50;15.10;99.90
15707;DHT22;7953;54.302;10.128;2022-08-21T01:00:19;15.10;99.90
15707;DHT22;7953;54.302;10.128;2022-08-21T01:02:47;15.10;99.90
15707;DHT22;7953;54.302;10.128;2022-08-21T01:05:14;15.10;99.90
15707;DHT22;7953;54.302;10.128;2022-08-21T01:07:42;15.00;99.90
15707;DHT22;7953;54.302;10.128;2022-08-21T01:10:12;15.00;99.90
15707;DHT22;7953;54.302;10.128;2022-08-21T01:12:40;15.10;99.90
15707;DHT22;7953;54.302;10.128;2022-08-21T01:15:08;15.10;99.90
15707;DHT22;7953;54.302;10.128;2022-08-21T01:17:35;15.10;99.90
15707;DHT22;7953;54.302;10.128;2022-08-21T01:20:06;15.10;99.90
15707;DHT22;7953;54.302;10.128;2022-08-21T01:22:35;15.00;99.90
15707;DHT22;7953;54.302;10.128;2022-08-21T01:25:03;15.00;99.90
15707;DHT22;7953;54.302;10.128;2022-08-21T01:27:30;15.00;99.90
15707;DHT22;7953;54.302;10.128;2022-08-21T01:30:01;14.90;99.90
15707;DHT22;7953;54.302;10.128;2022-08-21T01:32:31;14.80;99.90
15707;DHT22;7953;54.302;10.128;2022-08-21T01:34:58;14.80;99.90
15707;DHT22;7953;54.302;10.128;2022-08-21T01:37:25;14.70;99.90
15707;DHT22;7953;54.302;10.128;2022-08-21T01:39:53;14.70;99.90
15707;DHT22;7953;54.302;10.128;2022-08-21T01:42:20;14.70;99.90
15707;DHT22;7953;54.302;10.128;2022-08-21T01:44:47;14.70;99.90
15707;DHT22;7953;54.302;10.128;2022-08-21T01:47:15;14.70;99.90
15707;DHT22;7953;54.302;10.128;2022-08-21T01:49:43;14.70;99.90
15707;DHT22;7953;54.302;10.128;2022-08-21T01:52:10;14.60;99.90
15707;DHT22;7953;54.302;10.128;2022-08-21T01:54:38;14.50;99.90
15707;DHT22;7953;54.302;10.128;2022-08-21T01:57:06;14.50;99.90
15707;DHT22;7953;54.302;10.128;2022-08-21T01:59:34;14.50;99.90
15707;DHT22;7953;54.302;10.128;2022-08-21T02:02:02;14.40;99.90
15707;DHT22;7953;54.302;10.128;2022-08-21T02:04:29;14.40;99.90
15707;DHT22;7953;54.302;10.128;2022-08-21T02:06:57;14.40;99.90
15707;DHT22;7953;54.302;10.128;2022-08-21T02:09:24;14.40;99.90
15707;DHT22;7953;54.302;10.128;2022-08-21T02:11:51;14.40;99.90
15707;DHT22;7953;54.302;10.128;2022-08-21T02:14:20;14.40;99.90
15707;DHT22;7953;54.302;10.128;2022-08-21T02:16:47;14.40;99.90
15707;DHT22;7953;54.302;10.128;2022-08-21T02:19:15;14.40;99.90
15707;DHT22;7953;54.302;10.128;2022-08-21T02:21:42;14.40;99.90
15707;DHT22;7953;54.302;10.128;2022-08-21T02:24:10;14.40;99.90
15707;DHT22;7953;54.302;10.128;2022-08-21T02:26:37;14.40;99.90
15707;DHT22;7953;54.302;10.128;2022-08-21T02:29:06;14.40;99.90
15707;DHT22;7953;54.302;10.128;2022-08-21T02:31:34;14.40;99.90
15707;DHT22;7953;54.302;10.128;2022-08-21T02:34:01;14.30;99.90
15707;DHT22;7953;54.302;10.128;2022-08-21T02:36:28;14.30;99.90
15707;DHT22;7953;54.302;10.128;2022-08-21T02:38:56;14.20;99.90
15707;DHT22;7953;54.302;10.128;2022-08-21T02:41:23;14.20;99.90
15707;DHT22;7953;54.302;10.128;2022-08-21T02:43:50;14.20;99.90
15707;DHT22;7953;54.302;10.128;2022-08-21T02:46:19;14.20;99.90
15707;DHT22;7953;54.302;10.128;2022-08-21T02:48:47;14.20;99.90
15707;DHT22;7953;54.302;10.128;2022-08-21T02:51:17;14.20;99.90
15707;DHT22;7953;54.302;10.128;2022-08-21T02:53:46;14.10;99.90
15707;DHT22;7953;54.302;10.128;2022-08-21T02:56:16;14.10;99.90
15707;DHT22;7953;54.302;10.128;2022-08-21T02:58:45;14.10;99.90
15707;DHT22;7953;54.302;10.128;2022-08-21T03:01:13;14.10;99.90
15707;DHT22;7953;54.302;10.128;2022-08-21T03:03:42;14.00;99.90
15707;DHT22;7953;54.302;10.128;2022-08-21T03:06:12;14.10;99.90
15707;DHT22;7953;54.302;10.128;2022-08-21T03:08:40;14.00;99.90
15707;DHT22;7953;54.302;10.128;2022-08-21T03:11:07;14.10;99.90
15707;DHT22;7953;54.302;10.128;2022-08-21T03:13:34;14.10;99.90
15707;DHT22;7953;54.302;10.128;2022-08-21T03:16:01;14.10;99.90
15707;DHT22;7953;54.302;10.128;2022-08-21T03:18:28;14.00;99.90
15707;DHT22;7953;54.302;10.128;2022-08-21T03:20:55;14.00;99.90
15707;DHT22;7953;54.302;10.128;2022-08-21T03:23:23;13.90;99.90
15707;DHT22;7953;54.302;10.128;2022-08-21T03:25:50;13.90;99.90
15707;DHT22;7953;54.302;10.128;2022-08-21T03:28:20;13.90;99.90
15707;DHT22;7953;54.302;10.128;2022-08-21T03:30:49;13.90;99.90
15707;DHT22;7953;54.302;10.128;2022-08-21T03:33:17;13.90;99.90
15707;DHT22;7953;54.302;10.128;2022-08-21T03:35:47;13.80;99.90
15707;DHT22;7953;54.302;10.128;2022-08-21T03:38:14;13.80;99.90
15707;DHT22;7953;54.302;10.128;2022-08-21T03:40:43;13.80;99.90
15707;DHT22;7953;54.302;10.128;2022-08-21T03:43:10;13.80;99.90
15707;DHT22;7953;54.302;10.128;2022-08-21T03:45:38;13.80;99.90
15707;DHT22;7953;54.302;10.128;2022-08-21T03:48:06;13.80;99.90
15707;DHT22;7953;54.302;10.128;2022-08-21T03:50:37;13.90;99.90
15707;DHT22;7953;54.302;10.128;2022-08-21T03:53:04;13.90;99.90
15707;DHT22;7953;54.302;10.128;2022-08-21T03:55:31;13.90;99.90
15707;DHT22;7953;54.302;10.128;2022-08-21T03:58:00;13.90;99.90
15707;DHT22;7953;54.302;10.128;2022-08-21T04:00:27;13.90;99.90
15707;DHT22;7953;54.302;10.128;2022-08-21T04:02:54;13.90;99.90
15707;DHT22;7953;54.302;10.128;2022-08-21T04:05:21;13.80;99.90
15707;DHT22;7953;54.302;10.128;2022-08-21T04:07:55;13.80;99.90
15707;DHT22;7953;54.302;10.128;2022-08-21T04:10:23;13.80;99.90
15707;DHT22;7953;54.302;10.128;2022-08-21T04:12:51;13.90;99.90
15707;DHT22;7953;54.302;10.128;2022-08-21T04:15:21;13.90;99.90
15707;DHT22;7953;54.302;10.128;2022-08-21T04:17:48;13.80;99.90
15707;DHT22;7953;54.302;10.128;2022-08-21T04:20:15;13.80;99.90
15707;DHT22;7953;54.302;10.128;2022-08-21T04:22:42;13.80;99.90
15707;DHT22;7953;54.302;10.128;2022-08-21T04:25:11;13.80;99.90
15707;DHT22;7953;54.302;10.128;2022-08-21T04:27:38;13.80;99.90
15707;DHT22;7953;54.302;10.128;2022-08-21T04:30:07;13.80;99.90
15707;DHT22;7953;54.302;10.128;2022-08-21T04:32:37;13.70;99.90
15707;DHT22;7953;54.302;10.128;2022-08-21T04:35:06;13.80;99.90
15707;DHT22;7953;54.302;10.128;2022-08-21T04:37:34;13.70;99.90
15707;DHT22;7953;54.302;10.128;2022-08-21T04:40:01;13.70;99.90
15707;DHT22;7953;54.302;10.128;2022-08-21T04:42:28;13.80;99.90
15707;DHT22;7953;54.302;10.128;2022-08-21T04:44:56;13.70;99.90
15707;DHT22;7953;54.302;10.128;2022-08-21T04:47:23;13.70;99.90
15707;DHT22;7953;54.302;10.128;2022-08-21T04:49:52;13.70;99.90
15707;DHT22;7953;54.302;10.128;2022-08-21T04:52:21;13.80;99.90
15707;DHT22;7953;54.302;10.128;2022-08-21T04:54:50;13.80;99.90
15707;DHT22;7953;54.302;10.128;2022-08-21T04:57:18;13.90;99.90
15707;DHT22;7953;54.302;10.128;2022-08-21T04:59:48;14.00;99.90
15707;DHT22;7953;54.302;10.128;2022-08-21T05:02:16;14.00;99.90
15707;DHT22;7953;54.302;10.128;2022-08-21T05:04:47;14.10;99.90
15707;DHT22;7953;54.302;10.128;2022-08-21T05:07:19;14.20;99.90
15707;DHT22;7953;54.302;10.128;2022-08-21T05:09:47;14.20;99.90
15707;DHT22;7953;54.302;10.128;2022-08-21T05:12:14;14.30;99.90
15707;DHT22;7953;54.302;10.128;2022-08-21T05:14:42;14.30;99.90
15707;DHT22;7953;54.302;10.128;2022-08-21T05:17:09;14.30;99.90
15707;DHT22;7953;54.302;10.128;2022-08-21T05:19:36;14.40;99.90
15707;DHT22;7953;54.302;10.128;2022-08-21T05:22:03;14.40;99.90
15707;DHT22;7953;54.302;10.128;2022-08-21T05:24:32;14.40;99.90
15707;DHT22;7953;54.302;10.128;2022-08-21T05:26:59;14.50;99.90
15707;DHT22;7953;54.302;10.128;2022-08-21T05:29:26;14.50;99.90
15707;DHT22;7953;54.302;10.128;2022-08-21T05:31:56;14.50;99.90
15707;DHT22;7953;54.302;10.128;2022-08-21T05:34:23;14.60;99.90
15707;DHT22;7953;54.302;10.128;2022-08-21T05:36:50;14.60;99.90
15707;DHT22;7953;54.302;10.128;2022-08-21T05:39:17;14.60;99.90
15707;DHT22;7953;54.302;10.128;2022-08-21T05:41:46;14.60;99.90
15707;DHT22;7953;54.302;10.128;2022-08-21T05:44:13;14.70;99.90
15707;DHT22;7953;54.302;10.128;2022-08-21T05:46:40;14.70;99.90
15707;DHT22;7953;54.302;10.128;2022-08-21T05:49:07;14.70;99.90
15707;DHT22;7953;54.302;10.128;2022-08-21T05:51:34;14.70;99.90
15707;DHT22;7953;54.302;10.128;2022-08-21T05:54:01;14.70;99.90
15707;DHT22;7953;54.302;10.128;2022-08-21T05:56:28;14.70;99.90
15707;DHT22;7953;54.302;10.128;2022-08-21T05:58:56;14.80;99.90
15707;DHT22;7953;54.302;10.128;2022-08-21T06:01:23;14.80;99.90
15707;DHT22;7953;54.302;10.128;2022-08-21T06:03:50;14.80;99.90
15707;DHT22;7953;54.302;10.128;2022-08-21T06:06:17;14.90;99.90
15707;DHT22;7953;54.302;10.128;2022-08-21T06:08:44;15.00;99.90
15707;DHT22;7953;54.302;10.128;2022-08-21T06:11:11;15.00;99.90
15707;DHT22;7953;54.302;10.128;2022-08-21T06:13:38;15.20;99.90
15707;DHT22;7953;54.302;10.128;2022-08-21T06:16:09;15.20;99.90
15707;DHT22;7953;54.302;10.128;2022-08-21T06:18:37;15.40;99.90
15707;DHT22;7953;54.302;10.128;2022-08-21T06:21:05;15.50;99.90
15707;DHT22;7953;54.302;10.128;2022-08-21T06:23:32;15.60;99.90
15707;DHT22;7953;54.302;10.128;2022-08-21T06:26:00;15.70;99.90
15707;DHT22;7953;54.302;10.128;2022-08-21T06:28:27;15.70;99.90
15707;DHT22;7953;54.302;10.128;2022-08-21T06:30:54;15.80;99.90
15707;DHT22;7953;54.302;10.128;2022-08-21T06:33:23;15.80;99.90
15707;DHT22;7953;54.302;10.128;2022-08-21T06:35:50;15.90;99.90
15707;DHT22;7953;54.302;10.128;2022-08-21T06:38:17;16.10;99.90
15707;DHT22;7953;54.302;10.128;2022-08-21T06:40:45;16.20;99.90
15707;DHT22;7953;54.302;10.128;2022-08-21T06:43:14;16.30;99.90
15707;DHT22;7953;54.302;10.128;2022-08-21T06:45:41;16.30;99.90
15707;DHT22;7953;54.302;10.128;2022-08-21T06:48:08;16.40;99.90
15707;DHT22;7953;54.302;10.128;2022-08-21T06:50:36;16.50;99.90
15707;DHT22;7953;54.302;10.128;2022-08-21T06:53:05;16.60;99.90
15707;DHT22;7953;54.302;10.128;2022-08-21T06:55:33;16.60;99.90
15707;DHT22;7953;54.302;10.128;2022-08-21T06:58:00;16.70;99.90
15707;DHT22;7953;54.302;10.128;2022-08-21T07:00:27;16.80;99.90
15707;DHT22;7953;54.302;10.128;2022-08-21T07:02:54;17.00;99.90
15707;DHT22;7953;54.302;10.128;2022-08-21T07:05:22;17.10;99.90
15707;DHT22;7953;54.302;10.128;2022-08-21T07:07:52;17.20;99.90
15707;DHT22;7953;54.302;10.128;2022-08-21T07:10:19;17.30;99.90
15707;DHT22;7953;54.302;10.128;2022-08-21T07:12:46;17.40;99.90
15707;DHT22;7953;54.302;10.128;2022-08-21T07:15:13;17.50;99.90
15707;DHT22;7953;54.302;10.128;2022-08-21T07:17:40;17.60;99.90
15707;DHT22;7953;54.302;10.128;2022-08-21T07:20:08;17.80;99.90
15707;DHT22;7953;54.302;10.128;2022-08-21T07:22:36;17.90;99.90
15707;DHT22;7953;54.302;10.128;2022-08-21T07:25:06;18.00;99.90
15707;DHT22;7953;54.302;10.128;2022-08-21T07:27:33;18.10;99.90
15707;DHT22;7953;54.302;10.128;2022-08-21T07:30:00;18.10;99.90
15707;DHT22;7953;54.302;10.128;2022-08-21T07:32:33;18.10;99.90
15707;DHT22;7953;54.302;10.128;2022-08-21T07:35:02;18.10;99.90
15707;DHT22;7953;54.302;10.128;2022-08-21T07:37:35;18.10;99.90
15707;DHT22;7953;54.302;10.128;2022-08-21T07:40:05;18.10;99.90
15707;DHT22;7953;54.302;10.128;2022-08-21T07:42:32;18.30;99.90
15707;DHT22;7953;54.302;10.128;2022-08-21T07:44:59;18.50;99.90
15707;DHT22;7953;54.302;10.128;2022-08-21T07:47:26;18.70;99.90
15707;DHT22;7953;54.302;10.128;2022-08-21T07:49:53;18.70;99.90
15707;DHT22;7953;54.302;10.128;2022-08-21T07:52:20;18.70;99.90
15707;DHT22;7953;54.302;10.128;2022-08-21T07:54:47;18.80;99.90
15707;DHT22;7953;54.302;10.128;2022-08-21T07:57:15;18.80;99.90
15707;DHT22;7953;54.302;10.128;2022-08-21T07:59:42;18.90;99.90
15707;DHT22;7953;54.302;10.128;2022-08-21T08:02:09;19.10;99.90
15707;DHT22;7953;54.302;10.128;2022-08-21T08:04:36;19.30;99.90
15707;DHT22;7953;54.302;10.128;2022-08-21T08:07:03;19.30;99.90
15707;DHT22;7953;54.302;10.128;2022-08-21T08:09:30;19.50;99.90
15707;DHT22;7953;54.302;10.128;2022-08-21T08:11:57;19.60;99.90
15707;DHT22;7953;54.302;10.128;2022-08-21T08:14:25;19.70;99.90
15707;DHT22;7953;54.302;10.128;2022-08-21T08:16:52;19.70;99.90
15707;DHT22;7953;54.302;10.128;2022-08-21T08:19:20;19.80;99.90
15707;DHT22;7953;54.302;10.128;2022-08-21T08:21:46;20.00;99.90
15707;DHT22;7953;54.302;10.128;2022-08-21T08:24:13;20.20;99.90
15707;DHT22;7953;54.302;10.128;2022-08-21T08:26:40;20.40;99.90
15707;DHT22;7953;54.302;10.128;2022-08-21T08:29:07;20.60;99.90
15707;DHT22;7953;54.302;10.128;2022-08-21T08:31:35;20.80;99.90
15707;DHT22;7953;54.302;10.128;2022-08-21T08:34:02;21.10;99.90
15707;DHT22;7953;54.302;10.128;2022-08-21T08:36:33;21.50;99.90
15707;DHT22;7953;54.302;10.128;2022-08-21T08:39:00;21.80;99.90
15707;DHT22;7953;54.302;10.128;2022-08-21T08:41:28;22.00;99.90
15707;DHT22;7953;54.302;10.128;2022-08-21T08:44:00;22.30;99.90
15707;DHT22;7953;54.302;10.128;2022-08-21T08:46:33;22.40;99.90
15707;DHT22;7953;54.302;10.128;2022-08-21T08:49:08;22.50;99.90
15707;DHT22;7953;54.302;10.128;2022-08-21T08:51:40;22.60;99.90
15707;DHT22;7953;54.302;10.128;2022-08-21T08:54:12;22.70;99.90
15707;DHT22;7953;54.302;10.128;2022-08-21T08:56:41;22.80;99.90
15707;DHT22;7953;54.302;10.128;2022-08-21T08:59:13;23.00;99.90
15707;DHT22;7953;54.302;10.128;2022-08-21T09:01:41;23.20;99.90
15707;DHT22;7953;54.302;10.128;2022-08-21T09:04:11;23.30;99.90
15707;DHT22;7953;54.302;10.128;2022-08-21T09:06:53;23.30;99.90
15707;DHT22;7953;54.302;10.128;2022-08-21T09:09:34;23.50;99.90
15707;DHT22;7953;54.302;10.128;2022-08-21T09:12:09;23.60;99.90
15707;DHT22;7953;54.302;10.128;2022-08-21T09:14:47;23.80;99.90
15707;DHT22;7953;54.302;10.128;2022-08-21T09:17:27;24.00;99.90
15707;DHT22;7953;54.302;10.128;2022-08-21T09:20:14;23.90;99.90
15707;DHT22;7953;54.302;10.128;2022-08-21T09:22:49;24.10;99.90
15707;DHT22;7953;54.302;10.128;2022-08-21T09:25:24;24.10;99.90
15707;DHT22;7953;54.302;10.128;2022-08-21T09:27:52;24.20;99.90
15707;DHT22;7953;54.302;10.128;2022-08-21T09:30:24;24.30;99.90
15707;DHT22;7953;54.302;10.128;2022-08-21T09:32:51;24.40;99.90
15707;DHT22;7953;54.302;10.128;2022-08-21T09:35:21;24.50;99.90
15707;DHT22;7953;54.302;10.128;2022-08-21T09:37:52;24.70;99.90
15707;DHT22;7953;54.302;10.128;2022-08-21T09:40:27;24.90;99.90
15707;DHT22;7953;54.302;10.128;2022-08-21T09:42:57;24.80;99.90
15707;DHT22;7953;54.302;10.128;2022-08-21T09:45:25;24.90;99.90
15707;DHT22;7953;54.302;10.128;2022-08-21T09:47:52;25.00;99.90
15707;DHT22;7953;54.302;10.128;2022-08-21T09:50:23;25.10;99.90
15707;DHT22;7953;54.302;10.128;2022-08-21T09:52:53;25.30;99.90
15707;DHT22;7953;54.302;10.128;2022-08-21T09:55:32;25.50;99.90
15707;DHT22;7953;54.302;10.128;2022-08-21T09:58:18;25.70;99.90
15707;DHT22;7953;54.302;10.128;2022-08-21T10:00:45;25.80;99.90
15707;DHT22;7953;54.302;10.128;2022-08-21T10:03:15;26.00;99.90
15707;DHT22;7953;54.302;10.128;2022-08-21T10:05:54;26.00;99.90
15707;DHT22;7953;54.302;10.128;2022-08-21T10:08:23;25.80;99.90
15707;DHT22;7953;54.302;10.128;2022-08-21T10:10:53;25.50;99.90
15707;DHT22;7953;54.302;10.128;2022-08-21T10:13:26;25.40;99.90
15707;DHT22;7953;54.302;10.128;2022-08-21T10:16:00;25.20;99.90
15707;DHT22;7953;54.302;10.128;2022-08-21T10:18:35;25.40;99.90
15707;DHT22;7953;54.302;10.128;2022-08-21T10:21:10;25.50;99.90
15707;DHT22;7953;54.302;10.128;2022-08-21T10:23:50;25.70;99.90
15707;DHT22;7953;54.302;10.128;2022-08-21T10:26:29;25.80;99.90
15707;DHT22;7953;54.302;10.128;2022-08-21T10:29:03;25.80;99.90
15707;DHT22;7953;54.302;10.128;2022-08-21T10:31:42;25.60;99.90
15707;DHT22;7953;54.302;10.128;2022-08-21T10:34:29;25.40;99.90
15707;DHT22;7953;54.302;10.128;2022-08-21T10:37:13;25.40;99.90
15707;DHT22;7953;54.302;10.128;2022-08-21T10:39:51;25.40;99.90
15707;DHT22;7953;54.302;10.128;2022-08-21T10:42:30;25.50;99.90
15707;DHT22;7953;54.302;10.128;2022-08-21T10:45:08;25.40;99.90
15707;DHT22;7953;54.302;10.128;2022-08-21T10:47:41;25.30;99.90
15707;DHT22;7953;54.302;10.128;2022-08-21T10:50:16;25.20;99.90
15707;DHT22;7953;54.302;10.128;2022-08-21T10:53:11;25.00;99.90
15707;DHT22;7953;54.302;10.128;2022-08-21T10:55:44;25.10;99.90
15707;DHT22;7953;54.302;10.128;2022-08-21T10:58:20;25.00;99.90
15707;DHT22;7953;54.302;10.128;2022-08-21T11:00:53;25.10;99.90
15707;DHT22;7953;54.302;10.128;2022-08-21T11:03:24;25.20;99.90
15707;DHT22;7953;54.302;10.128;2022-08-21T11:05:54;25.30;99.90
15707;DHT22;7953;54.302;10.128;2022-08-21T11:08:26;25.30;99.90
15707;DHT22;7953;54.302;10.128;2022-08-21T11:10:59;25.30;99.90
15707;DHT22;7953;54.302;10.128;2022-08-21T11:13:33;25.30;99.90
15707;DHT22;7953;54.302;10.128;2022-08-21T11:16:09;25.40;99.90
15707;DHT22;7953;54.302;10.128;2022-08-21T11:18:39;25.60;99.90
15707;DHT22;7953;54.302;10.128;2022-08-21T11:21:20;25.60;99.90
15707;DHT22;7953;54.302;10.128;2022-08-21T11:23:59;25.60;99.90
15707;DHT22;7953;54.302;10.128;2022-08-21T11:26:32;25.60;99.90
15707;DHT22;7953;54.302;10.128;2022-08-21T11:29:05;25.50;99.90
15707;DHT22;7953;54.302;10.128;2022-08-21T11:31:47;25.40;99.90
15707;DHT22;7953;54.302;10.128;2022-08-21T11:34:27;25.20;99.90
15707;DHT22;7953;54.302;10.128;2022-08-21T11:37:02;25.00;99.90
15707;DHT22;7953;54.302;10.128;2022-08-21T11:39:37;24.90;99.90
15707;DHT22;7953;54.302;10.128;2022-08-21T11:42:14;24.70;99.90
15707;DHT22;7953;54.302;10.128;2022-08-21T11:44:49;24.50;99.90
15707;DHT22;7953;54.302;10.128;2022-08-21T11:47:24;24.50;99.90
15707;DHT22;7953;54.302;10.128;2022-08-21T11:50:02;24.50;99.90
15707;DHT22;7953;54.302;10.128;2022-08-21T11:52:35;24.60;99.90
15707;DHT22;7953;54.302;10.128;2022-08-21T11:55:08;24.80;99.90
15707;DHT22;7953;54.302;10.128;2022-08-21T11:57:42;25.10;99.90
15707;DHT22;7953;54.302;10.128;2022-08-21T12:00:16;25.10;99.90
15707;DHT22;7953;54.302;10.128;2022-08-21T12:02:49;25.20;99.90
15707;DHT22;7953;54.302;10.128;2022-08-21T12:05:27;25.30;99.90
15707;DHT22;7953;54.302;10.128;2022-08-21T12:08:03;25.40;99.90
15707;DHT22;7953;54.302;10.128;2022-08-21T12:10:35;25.50;99.90
15707;DHT22;7953;54.302;10.128;2022-08-21T12:13:07;25.50;99.90
15707;DHT22;7953;54.302;10.128;2022-08-21T12:15:35;25.60;99.90
15707;DHT22;7953;54.302;10.128;2022-08-21T12:18:04;25.60;99.90
15707;DHT22;7953;54.302;10.128;2022-08-21T12:20:42;25.50;99.90
15707;DHT22;7953;54.302;10.128;2022-08-21T12:23:24;25.50;99.90
15707;DHT22;7953;54.302;10.128;2022-08-21T12:26:03;25.40;99.90
15707;DHT22;7953;54.302;10.128;2022-08-21T12:28:31;25.40;99.90
15707;DHT22;7953;54.302;10.128;2022-08-21T12:30:58;25.30;99.90
15707;DHT22;7953;54.302;10.128;2022-08-21T12:33:28;25.40;99.90
15707;DHT22;7953;54.302;10.128;2022-08-21T12:36:04;25.50;99.90
15707;DHT22;7953;54.302;10.128;2022-08-21T12:38:39;25.60;99.90
15707;DHT22;7953;54.302;10.128;2022-08-21T12:41:16;25.70;99.90
15707;DHT22;7953;54.302;10.128;2022-08-21T12:43:47;25.90;99.90
15707;DHT22;7953;54.302;10.128;2022-08-21T12:46:18;26.00;99.90
15707;DHT22;7953;54.302;10.128;2022-08-21T12:48:49;26.10;99.90
15707;DHT22;7953;54.302;10.128;2022-08-21T12:51:22;26.10;99.90
15707;DHT22;7953;54.302;10.128;2022-08-21T12:53:51;26.10;99.90
15707;DHT22;7953;54.302;10.128;2022-08-21T12:56:21;26.10;99.90
15707;DHT22;7953;54.302;10.128;2022-08-21T12:58:50;26.20;99.90
15707;DHT22;7953;54.302;10.128;2022-08-21T13:01:22;26.20;99.90
15707;DHT22;7953;54.302;10.128;2022-08-21T13:03:51;26.30;99.90
15707;DHT22;7953;54.302;10.128;2022-08-21T13:06:20;26.30;99.90
15707;DHT22;7953;54.302;10.128;2022-08-21T13:08:49;26.30;99.90
15707;DHT22;7953;54.302;10.128;2022-08-21T13:11:22;26.30;99.90
15707;DHT22;7953;54.302;10.128;2022-08-21T13:13:49;26.20;99.90
15707;DHT22;7953;54.302;10.128;2022-08-21T13:16:21;26.20;99.90
15707;DHT22;7953;54.302;10.128;2022-08-21T13:18:56;26.10;99.90
15707;DHT22;7953;54.302;10.128;2022-08-21T13:21:29;26.10;99.90
15707;DHT22;7953;54.302;10.128;2022-08-21T13:24:15;25.80;99.90
15707;DHT22;7953;54.302;10.128;2022-08-21T13:26:44;25.90;99.90
15707;DHT22;7953;54.302;10.128;2022-08-21T13:29:12;25.90;99.90
15707;DHT22;7953;54.302;10.128;2022-08-21T13:31:48;25.80;99.90
15707;DHT22;7953;54.302;10.128;2022-08-21T13:34:15;25.80;99.90
15707;DHT22;7953;54.302;10.128;2022-08-21T13:36:44;25.90;99.90
15707;DHT22;7953;54.302;10.128;2022-08-21T13:39:19;26.00;99.90
15707;DHT22;7953;54.302;10.128;2022-08-21T13:41:50;25.90;99.90
15707;DHT22;7953;54.302;10.128;2022-08-21T13:44:20;25.90;99.90
15707;DHT22;7953;54.302;10.128;2022-08-21T13:46:52;25.70;99.90
15707;DHT22;7953;54.302;10.128;2022-08-21T13:49:25;25.70;99.90
15707;DHT22;7953;54.302;10.128;2022-08-21T13:51:53;25.70;99.90
15707;DHT22;7953;54.302;10.128;2022-08-21T13:54:23;25.70;99.90
15707;DHT22;7953;54.302;10.128;2022-08-21T13:56:53;25.70;99.90
15707;DHT22;7953;54.302;10.128;2022-08-21T13:59:25;25.80;99.90
15707;DHT22;7953;54.302;10.128;2022-08-21T14:01:54;25.90;99.90
15707;DHT22;7953;54.302;10.128;2022-08-21T14:04:29;25.90;99.90
15707;DHT22;7953;54.302;10.128;2022-08-21T14:06:57;25.80;99.90
15707;DHT22;7953;54.302;10.128;2022-08-21T14:09:28;25.90;99.90
15707;DHT22;7953;54.302;10.128;2022-08-21T14:12:00;25.90;99.90
15707;DHT22;7953;54.302;10.128;2022-08-21T14:14:30;25.90;99.90
15707;DHT22;7953;54.302;10.128;2022-08-21T14:16:59;25.70;99.90
15707;DHT22;7953;54.302;10.128;2022-08-21T14:19:34;25.80;99.90
15707;DHT22;7953;54.302;10.128;2022-08-21T14:22:22;25.70;99.90
15707;DHT22;7953;54.302;10.128;2022-08-21T14:24:50;25.70;99.90
15707;DHT22;7953;54.302;10.128;2022-08-21T14:27:27;25.70;99.90
15707;DHT22;7953;54.302;10.128;2022-08-21T14:29:59;25.60;99.90
15707;DHT22;7953;54.302;10.128;2022-08-21T14:32:28;25.60;99.90
15707;DHT22;7953;54.302;10.128;2022-08-21T14:34:56;25.60;99.90
15707;DHT22;7953;54.302;10.128;2022-08-21T14:37:23;25.50;99.90
15707;DHT22;7953;54.302;10.128;2022-08-21T14:39:51;25.60;99.90
15707;DHT22;7953;54.302;10.128;2022-08-21T14:42:18;25.50;99.90
15707;DHT22;7953;54.302;10.128;2022-08-21T14:44:46;25.40;99.90
15707;DHT22;7953;54.302;10.128;2022-08-21T14:47:13;25.20;99.90
15707;DHT22;7953;54.302;10.128;2022-08-21T14:49:40;25.00;99.90
15707;DHT22;7953;54.302;10.128;2022-08-21T14:52:08;24.90;99.90
15707;DHT22;7953;54.302;10.128;2022-08-21T14:54:35;24.70;99.90
15707;DHT22;7953;54.302;10.128;2022-08-21T14:57:05;24.70;99.90
15707;DHT22;7953;54.302;10.128;2022-08-21T14:59:33;24.70;99.90
15707;DHT22;7953;54.302;10.128;2022-08-21T15:02:02;24.90;99.90
15707;DHT22;7953;54.302;10.128;2022-08-21T15:04:29;25.00;99.90
15707;DHT22;7953;54.302;10.128;2022-08-21T15:06:56;25.20;99.90
15707;DHT22;7953;54.302;10.128;2022-08-21T15:09:23;25.40;99.90
15707;DHT22;7953;54.302;10.128;2022-08-21T15:11:51;25.40;99.90
15707;DHT22;7953;54.302;10.128;2022-08-21T15:14:20;25.50;99.90
15707;DHT22;7953;54.302;10.128;2022-08-21T15:16:48;25.40;99.90
15707;DHT22;7953;54.302;10.128;2022-08-21T15:19:18;25.40;99.90
15707;DHT22;7953;54.302;10.128;2022-08-21T15:21:45;25.40;99.90
15707;DHT22;7953;54.302;10.128;2022-08-21T15:24:12;25.30;99.90
15707;DHT22;7953;54.302;10.128;2022-08-21T15:26:38;25.20;99.90
15707;DHT22;7953;54.302;10.128;2022-08-21T15:29:07;25.20;99.90
15707;DHT22;7953;54.302;10.128;2022-08-21T15:31:34;25.00;99.90
15707;DHT22;7953;54.302;10.128;2022-08-21T15:34:02;24.70;99.90
15707;DHT22;7953;54.302;10.128;2022-08-21T15:36:30;24.60;99.90
15707;DHT22;7953;54.302;10.128;2022-08-21T15:38:57;24.50;99.90
15707;DHT22;7953;54.302;10.128;2022-08-21T15:41:24;24.50;99.90
15707;DHT22;7953;54.302;10.128;2022-08-21T15:43:52;24.60;99.90
15707;DHT22;7953;54.302;10.128;2022-08-21T15:46:20;24.70;99.90